createdAt,value
2019-01-13T00:02:13.621Z,97.01
2019-01-13T00:04:44.007Z,96.93
2019-01-13T00:07:14.684Z,96.96
2019-01-13T00:09:45.079Z,96.94
2019-01-13T00:12:15.677Z,96.93
2019-01-13T00:14:45.928Z,96.88
2019-01-13T00:17:16.230Z,96.89
2019-01-13T00:19:46.529Z,96.87
2019-01-13T00:22:17.035Z,96.88
2019-01-13T00:24:47.640Z,96.89
2019-01-13T00:27:17.945Z,97.00
2019-01-13T00:29:48.231Z,97.02
2019-01-13T00:32:18.699Z,97.01
2019-01-13T00:34:51.313Z,97.08
2019-01-13T00:37:21.915Z,97.14
2019-01-13T00:39:52.283Z,97.16
2019-01-13T00:42:22.648Z,97.15
2019-01-13T00:44:52.969Z,97.20
2019-01-13T00:47:23.197Z,97.26
2019-01-13T00:49:53.584Z,97.35
2019-01-13T00:52:24.063Z,97.45
2019-01-13T00:54:54.453Z,97.50
2019-01-13T00:57:24.745Z,97.54
2019-01-13T00:59:55.047Z,97.59
2019-01-13T01:02:25.477Z,97.57
2019-01-13T01:04:55.862Z,97.54
2019-01-13T01:07:26.419Z,97.58
2019-01-13T01:09:56.764Z,97.59
2019-01-13T01:12:27.485Z,97.62
2019-01-13T01:14:58.537Z,97.64
2019-01-13T01:17:29.027Z,97.65
2019-01-13T01:19:59.477Z,97.67
2019-01-13T01:22:29.978Z,97.70
2019-01-13T01:25:00.614Z,97.71
2019-01-13T01:27:30.999Z,97.72
2019-01-13T01:30:01.205Z,97.69
2019-01-13T01:32:31.567Z,97.71
2019-01-13T01:35:02.393Z,97.69
2019-01-13T01:37:32.734Z,97.67
2019-01-13T01:40:03.101Z,97.65
2019-01-13T01:42:33.545Z,97.66
2019-01-13T01:45:04.487Z,97.69
2019-01-13T01:47:34.835Z,97.69
2019-01-13T01:50:06.110Z,97.70
2019-01-13T01:52:36.475Z,97.68
2019-01-13T01:55:10.114Z,97.69
2019-01-13T01:57:40.731Z,97.71
2019-01-13T02:00:19.152Z,97.73
2019-01-13T02:02:49.633Z,97.76
2019-01-13T02:05:20.165Z,97.78
2019-01-13T02:07:50.621Z,97.77
2019-01-13T02:10:24.089Z,97.79
2019-01-13T02:12:54.458Z,97.78
2019-01-13T02:15:28.945Z,97.78
2019-01-13T02:17:59.313Z,97.76
2019-01-13T02:20:29.912Z,97.76
2019-01-13T02:23:00.614Z,97.77
2019-01-13T02:25:31.267Z,97.73
2019-01-13T02:28:01.630Z,97.77
2019-01-13T02:30:32.348Z,97.82
2019-01-13T02:33:02.809Z,97.81
2019-01-13T02:35:33.220Z,97.80
2019-01-13T02:38:03.991Z,97.81
2019-01-13T02:40:34.232Z,97.82
2019-01-13T02:43:04.579Z,97.84
2019-01-13T02:45:34.858Z,97.84
2019-01-13T02:48:05.298Z,97.83
2019-01-13T02:50:35.551Z,97.81
2019-01-13T02:53:05.969Z,97.80
2019-01-13T02:55:36.735Z,97.79
2019-01-13T02:58:07.192Z,97.81
2019-01-13T03:00:37.545Z,97.81
2019-01-13T03:03:07.964Z,97.83
2019-01-13T03:05:38.326Z,97.79
2019-01-13T03:08:08.988Z,97.82
2019-01-13T03:10:39.243Z,97.82
2019-01-13T03:13:09.347Z,97.79
2019-01-13T03:15:39.525Z,97.75
2019-01-13T03:18:10.172Z,97.72
2019-01-13T03:20:40.388Z,97.70
2019-01-13T03:23:10.776Z,97.69
2019-01-13T03:25:41.025Z,97.68
2019-01-13T03:28:11.203Z,97.66
2019-01-13T03:30:41.794Z,97.64
2019-01-13T03:33:12.052Z,97.62
2019-01-13T03:35:42.503Z,97.60
2019-01-13T03:38:12.743Z,97.61
2019-01-13T03:40:43.006Z,97.63
2019-01-13T03:43:13.730Z,97.65
2019-01-13T03:45:43.914Z,97.66
2019-01-13T03:48:14.492Z,97.66
2019-01-13T03:50:44.812Z,97.65
2019-01-13T03:53:15.409Z,97.64
2019-01-13T03:55:45.943Z,97.64
2019-01-13T03:58:16.199Z,97.64
2019-01-13T04:00:46.359Z,97.63
2019-01-13T04:03:16.527Z,97.64
2019-01-13T04:05:46.785Z,97.65
2019-01-13T04:08:17.121Z,97.66
2019-01-13T04:10:47.365Z,97.67
2019-01-13T04:13:17.531Z,97.66
2019-01-13T04:16:14.187Z,97.66
2019-01-13T04:18:44.383Z,97.66
2019-01-13T04:21:14.663Z,97.65
2019-01-13T04:23:44.821Z,97.67
2019-01-13T04:26:15.007Z,97.71
2019-01-13T04:28:45.191Z,97.72
2019-01-13T04:31:15.353Z,97.74
2019-01-13T04:33:45.548Z,97.75
2019-01-13T04:36:15.871Z,97.79
2019-01-13T04:38:46.213Z,97.79
2019-01-13T04:41:16.735Z,97.84
2019-01-13T04:43:47.236Z,97.81
2019-01-13T04:46:17.327Z,97.82
2019-01-13T04:48:47.433Z,97.83
2019-01-13T04:51:18.057Z,97.84
2019-01-13T04:53:48.180Z,97.89
2019-01-13T04:56:18.733Z,97.89
2019-01-13T04:58:48.854Z,97.88
2019-01-13T05:01:19.445Z,97.94
2019-01-13T05:03:49.623Z,97.94
2019-01-13T05:06:19.894Z,97.92
2019-01-13T05:08:50.101Z,97.92
2019-01-13T05:11:20.779Z,97.95
2019-01-13T05:13:50.910Z,97.96
2019-01-13T05:16:21.015Z,97.96
2019-01-13T05:18:51.203Z,97.98
2019-01-13T05:21:21.819Z,97.99
2019-01-13T05:23:51.928Z,97.99
2019-01-13T05:26:22.180Z,97.99
2019-01-13T05:28:52.301Z,98.01
2019-01-13T05:31:22.415Z,98.01
2019-01-13T05:33:52.607Z,98.02
2019-01-13T05:36:22.770Z,98.05
2019-01-13T05:38:53.127Z,98.03
2019-01-13T05:41:23.817Z,98.04
2019-01-13T05:43:53.907Z,98.04
2019-01-13T05:46:24.265Z,98.04
2019-01-13T05:48:54.447Z,98.06
2019-01-13T05:51:24.887Z,98.08
2019-01-13T05:53:55.057Z,98.09
2019-01-13T05:56:25.236Z,98.09
2019-01-13T05:58:55.599Z,98.13
2019-01-13T06:01:26.155Z,98.14
2019-01-13T06:03:56.350Z,98.10
2019-01-13T06:06:26.610Z,98.13
2019-01-13T06:08:56.801Z,98.09
2019-01-13T06:11:27.181Z,98.11
2019-01-13T06:13:57.477Z,98.10
2019-01-13T06:16:27.671Z,98.09
2019-01-13T06:18:58.190Z,98.09
2019-01-13T06:21:28.451Z,98.08
2019-01-13T06:23:58.637Z,98.12
2019-01-13T06:26:28.890Z,98.07
2019-01-13T06:28:59.068Z,98.07
2019-01-13T06:31:29.168Z,98.05
2019-01-13T06:34:05.724Z,98.06
2019-01-13T06:36:36.073Z,98.04
2019-01-13T06:39:09.032Z,98.04
2019-01-13T06:41:39.243Z,98.05
2019-01-13T06:44:09.420Z,98.01
2019-01-13T06:46:39.688Z,98.00
2019-01-13T06:49:09.944Z,97.99
2019-01-13T06:51:40.413Z,97.96
2019-01-13T06:54:11.058Z,97.91
2019-01-13T06:56:41.273Z,97.93
2019-01-13T06:59:11.777Z,97.88
2019-01-13T07:01:42.026Z,97.93
2019-01-13T07:04:12.293Z,97.94
2019-01-13T07:06:42.479Z,97.96
2019-01-13T07:09:12.598Z,97.96
2019-01-13T07:11:42.861Z,97.96
2019-01-13T07:14:13.034Z,97.98
2019-01-13T07:16:43.157Z,97.99
2019-01-13T07:19:13.527Z,98.00
2019-01-13T07:21:43.803Z,97.99
2019-01-13T07:24:13.898Z,97.99
2019-01-13T07:26:44.146Z,97.97
2019-01-13T07:29:14.567Z,97.95
2019-01-13T07:31:44.819Z,97.96
2019-01-13T07:34:15.074Z,97.95
2019-01-13T07:36:45.700Z,97.96
2019-01-13T07:39:15.812Z,97.94
2019-01-13T07:41:46.017Z,97.97
2019-01-13T07:44:17.536Z,97.94
2019-01-13T07:46:48.170Z,97.96
2019-01-13T07:49:18.357Z,97.95
2019-01-13T07:51:48.695Z,97.95
2019-01-13T07:54:18.863Z,97.95
2019-01-13T07:56:49.107Z,97.91
2019-01-13T07:59:19.208Z,97.86
2019-01-13T08:01:49.503Z,97.82
2019-01-13T08:04:20.157Z,97.73
2019-01-13T08:06:50.381Z,97.63
2019-01-13T08:09:20.530Z,97.46
2019-01-13T08:11:51.310Z,97.27
2019-01-13T08:14:21.660Z,97.19
2019-01-13T08:16:52.216Z,97.19
2019-01-13T08:19:22.662Z,97.17
2019-01-13T08:21:52.967Z,97.12
2019-01-13T08:24:23.308Z,97.03
2019-01-13T08:26:53.865Z,96.97
2019-01-13T08:29:24.000Z,96.94
2019-01-13T08:31:54.243Z,97.01
2019-01-13T08:34:24.431Z,97.02
2019-01-13T08:36:55.023Z,97.05
2019-01-13T08:39:25.479Z,97.04
2019-01-13T08:41:55.583Z,97.03
2019-01-13T08:44:25.691Z,96.97
2019-01-13T08:46:55.783Z,96.98
2019-01-13T08:49:26.146Z,96.88
2019-01-13T08:51:56.415Z,96.88
2019-01-13T08:54:26.868Z,96.86
2019-01-13T08:56:57.264Z,96.82
2019-01-13T08:59:27.745Z,96.75
2019-01-13T09:01:58.156Z,96.76
2019-01-13T09:04:28.799Z,96.80
2019-01-13T09:06:59.046Z,96.79
2019-01-13T09:09:30.242Z,96.77
2019-01-13T09:12:00.881Z,96.75
2019-01-13T09:14:31.051Z,96.69
2019-01-13T09:17:01.419Z,96.60
2019-01-13T09:19:31.602Z,96.50
2019-01-13T09:22:01.968Z,96.40
2019-01-13T09:24:32.210Z,96.27
2019-01-13T09:27:02.711Z,96.24
2019-01-13T09:29:33.263Z,96.16
2019-01-13T09:32:03.433Z,96.13
2019-01-13T09:34:33.605Z,95.98
2019-01-13T09:37:03.933Z,96.05
2019-01-13T09:39:34.358Z,96.00
2019-01-13T09:42:04.779Z,96.10
2019-01-13T09:44:35.046Z,96.13
2019-01-13T09:47:05.310Z,96.20
2019-01-13T09:49:35.852Z,96.11
2019-01-13T09:52:06.191Z,96.05
2019-01-13T09:54:36.414Z,95.89
2019-01-13T09:57:06.667Z,95.84
2019-01-13T09:59:37.073Z,95.89
2019-01-13T10:02:07.929Z,95.86
2019-01-13T10:04:38.558Z,95.85
2019-01-13T10:07:08.818Z,95.53
2019-01-13T10:09:39.092Z,95.56
2019-01-13T10:12:09.668Z,95.62
2019-01-13T10:14:40.114Z,95.48
2019-01-13T10:17:10.634Z,95.36
2019-01-13T10:19:40.830Z,95.29
2019-01-13T10:22:11.403Z,95.35
2019-01-13T10:24:41.701Z,95.43
2019-01-13T10:27:11.922Z,95.43
2019-01-13T10:29:42.182Z,95.62
2019-01-13T10:32:12.440Z,95.69
2019-01-13T10:34:42.653Z,95.73
2019-01-13T10:37:12.978Z,95.69
2019-01-13T10:39:43.093Z,95.99
2019-01-13T10:42:14.175Z,95.96
2019-01-13T10:44:44.671Z,95.75
2019-01-13T10:47:14.760Z,95.81
2019-01-13T10:49:44.860Z,95.79
2019-01-13T10:52:15.474Z,95.57
2019-01-13T10:54:45.658Z,95.56
2019-01-13T10:57:16.160Z,95.47
2019-01-13T10:59:46.420Z,95.61
2019-01-13T11:02:16.732Z,95.64
2019-01-13T11:04:47.066Z,95.55
2019-01-13T11:07:17.196Z,95.31
2019-01-13T11:09:47.799Z,95.24
2019-01-13T11:12:18.044Z,95.37
2019-01-13T11:14:48.188Z,95.30
2019-01-13T11:17:18.967Z,95.23
2019-01-13T11:19:49.243Z,95.25
2019-01-13T11:22:19.854Z,95.20
2019-01-13T11:24:50.131Z,95.33
2019-01-13T11:27:20.353Z,95.57
2019-01-13T11:29:50.541Z,95.63
2019-01-13T11:32:21.326Z,95.70
2019-01-13T11:34:51.494Z,95.88
2019-01-13T11:37:21.814Z,95.94
2019-01-13T11:39:51.963Z,96.09
2019-01-13T11:42:22.766Z,96.09
2019-01-13T11:44:53.069Z,96.04
2019-01-13T11:47:23.698Z,96.15
2019-01-13T11:49:53.955Z,96.09
2019-01-13T11:52:24.433Z,96.09
2019-01-13T11:54:54.671Z,95.90
2019-01-13T11:57:25.270Z,95.81
2019-01-13T11:59:55.505Z,95.86
2019-01-13T12:02:32.414Z,95.89
2019-01-13T12:04:57.653Z,95.86
2019-01-13T12:07:28.950Z,95.87
2019-01-13T12:09:59.259Z,96.02
2019-01-13T12:12:30.092Z,96.11
2019-01-13T12:15:00.559Z,95.92
2019-01-13T12:17:30.848Z,95.89
2019-01-13T12:20:01.122Z,95.88
2019-01-13T12:22:31.371Z,95.94
2019-01-13T12:25:01.788Z,96.09
2019-01-13T12:27:32.059Z,96.12
2019-01-13T12:30:02.299Z,96.20
2019-01-13T12:32:32.827Z,96.17
2019-01-13T12:35:04.644Z,96.18
2019-01-13T12:37:34.918Z,96.19
2019-01-13T12:40:07.347Z,96.32
2019-01-13T12:42:37.877Z,96.25
2019-01-13T12:45:09.265Z,96.31
2019-01-13T12:47:40.884Z,96.39
2019-01-13T12:50:18.988Z,96.46
2019-01-13T12:52:49.554Z,96.49
2019-01-13T12:55:19.962Z,96.65
2019-01-13T12:57:50.615Z,96.73
2019-01-13T13:00:21.684Z,96.80
2019-01-13T13:02:52.313Z,96.81
2019-01-13T13:05:22.783Z,97.00
2019-01-13T13:07:53.041Z,97.08
2019-01-13T13:10:44.685Z,97.12
2019-01-13T13:13:15.678Z,97.20
2019-01-13T13:15:46.387Z,97.27
2019-01-13T13:18:16.669Z,97.33
2019-01-13T13:20:47.009Z,97.38
2019-01-13T13:23:17.375Z,97.41
2019-01-13T13:25:48.060Z,97.48
2019-01-13T13:28:19.189Z,97.48
2019-01-13T13:30:49.589Z,97.52
2019-01-13T13:33:19.923Z,97.50
2019-01-13T13:35:50.201Z,97.53
2019-01-13T13:38:23.558Z,97.49
2019-01-13T13:40:53.731Z,97.43
2019-01-13T13:43:32.562Z,97.42
2019-01-13T13:46:04.729Z,97.41
2019-01-13T13:48:34.961Z,97.34
2019-01-13T13:51:05.717Z,97.28
2019-01-13T13:53:35.973Z,97.23
2019-01-13T13:56:06.660Z,97.18
2019-01-13T13:58:36.919Z,97.15
2019-01-13T14:01:07.794Z,97.15
2019-01-13T14:03:38.153Z,97.17
2019-01-13T14:06:08.488Z,97.23
2019-01-13T14:08:38.694Z,97.22
2019-01-13T14:11:09.038Z,97.08
2019-01-13T14:13:39.321Z,97.09
2019-01-13T14:16:09.581Z,97.09
2019-01-13T14:18:40.156Z,97.01
2019-01-13T14:21:10.417Z,96.96
2019-01-13T14:23:40.802Z,96.98
2019-01-13T14:26:11.253Z,97.06
2019-01-13T14:28:41.644Z,97.12
2019-01-13T14:31:11.905Z,97.09
2019-01-13T14:33:42.946Z,97.12
2019-01-13T14:36:13.511Z,97.09
2019-01-13T14:38:43.844Z,97.03
2019-01-13T14:41:14.196Z,97.02
2019-01-13T14:43:44.711Z,97.08
2019-01-13T14:46:15.320Z,97.18
2019-01-13T14:48:45.589Z,97.24
2019-01-13T14:51:16.037Z,97.32
2019-01-13T14:53:46.573Z,97.37
2019-01-13T14:56:16.796Z,97.46
2019-01-13T14:58:47.208Z,97.29
2019-01-13T15:01:17.313Z,97.12
2019-01-13T15:03:47.821Z,97.01
2019-01-13T15:06:18.102Z,96.93
2019-01-13T15:08:48.282Z,97.02
2019-01-13T15:11:33.690Z,97.09
2019-01-13T15:14:15.987Z,97.01
2019-01-13T15:16:47.898Z,97.08
2019-01-13T15:19:22.332Z,97.04
2019-01-13T15:22:10.371Z,97.00
2019-01-13T15:24:41.123Z,96.95
2019-01-13T15:27:12.992Z,96.90
2019-01-13T15:29:43.641Z,97.05
2019-01-13T15:32:17.590Z,97.19
2019-01-13T15:34:51.532Z,97.23
2019-01-13T15:37:27.667Z,97.18
2019-01-13T15:40:05.471Z,97.04
2019-01-13T15:42:41.859Z,97.06
2019-01-13T15:45:21.579Z,97.08
2019-01-13T15:47:52.476Z,97.07
2019-01-13T15:50:30.350Z,97.05
2019-01-13T15:53:04.399Z,97.09
2019-01-13T15:55:45.598Z,97.25
2019-01-13T15:58:43.893Z,97.26
2019-01-13T16:01:05.591Z,97.31
2019-01-13T16:03:36.169Z,97.40
2019-01-13T16:06:06.528Z,97.39
2019-01-13T16:08:36.705Z,97.50
2019-01-13T16:11:07.115Z,97.60
2019-01-13T16:13:37.360Z,97.58
2019-01-13T16:16:07.629Z,97.62
2019-01-13T16:18:37.966Z,97.69
2019-01-13T16:21:08.376Z,97.72
2019-01-13T16:23:40.211Z,97.70
2019-01-13T16:26:10.331Z,97.76
2019-01-13T16:28:40.520Z,97.73
2019-01-13T16:31:13.753Z,97.76
2019-01-13T16:33:44.295Z,97.72
2019-01-13T16:36:14.531Z,97.68
2019-01-13T16:38:44.961Z,97.68
2019-01-13T16:41:15.159Z,97.65
2019-01-13T16:43:45.887Z,97.60
2019-01-13T16:46:16.062Z,97.56
2019-01-13T16:48:46.257Z,97.54
2019-01-13T16:51:16.523Z,97.53
2019-01-13T16:53:47.118Z,97.49
2019-01-13T16:56:17.430Z,97.43
2019-01-13T16:58:47.677Z,97.39
2019-01-13T17:01:17.948Z,97.30
2019-01-13T17:03:51.116Z,97.19
2019-01-13T17:06:21.328Z,97.15
2019-01-13T17:08:51.811Z,97.15
2019-01-13T17:11:22.022Z,97.25
2019-01-13T17:14:08.361Z,97.36
2019-01-13T17:16:44.054Z,97.36
2019-01-13T17:19:17.232Z,97.43
2019-01-13T17:21:47.470Z,97.50
2019-01-13T17:24:17.666Z,97.55
2019-01-13T17:26:47.878Z,97.59
2019-01-13T17:29:18.541Z,97.62
2019-01-13T17:31:48.694Z,97.66
2019-01-13T17:34:19.022Z,97.63
2019-01-13T17:36:49.202Z,97.59
2019-01-13T17:39:19.446Z,97.72
2019-01-13T17:41:49.714Z,97.76
2019-01-13T17:44:20.273Z,97.77
2019-01-13T17:46:50.526Z,97.86
2019-01-13T17:49:20.864Z,97.84
2019-01-13T17:51:51.423Z,97.91
2019-01-13T17:54:26.446Z,97.99
2019-01-13T17:56:56.568Z,97.86
2019-01-13T17:59:29.662Z,97.86
2019-01-13T18:02:04.630Z,97.82
2019-01-13T18:04:34.955Z,97.76
2019-01-13T18:07:07.191Z,97.66
2019-01-13T18:09:37.402Z,97.66
2019-01-13T18:12:11.530Z,97.67
2019-01-13T18:14:41.745Z,97.67
2019-01-13T18:17:11.994Z,97.69
2019-01-13T18:19:42.213Z,97.67
2019-01-13T18:22:12.793Z,97.73
2019-01-13T18:24:46.093Z,97.72
2019-01-13T18:27:18.557Z,97.75
2019-01-13T18:29:51.149Z,97.63
2019-01-13T18:32:21.482Z,97.73
2019-01-13T18:34:51.931Z,97.79
2019-01-13T18:37:22.141Z,97.76
2019-01-13T18:39:53.307Z,97.74
2019-01-13T18:42:23.406Z,97.83
2019-01-13T18:44:53.519Z,97.91
2019-01-13T18:47:23.684Z,97.94
2019-01-13T18:50:02.686Z,97.98
2019-01-13T18:52:34.119Z,97.98
2019-01-13T18:55:08.442Z,97.98
2019-01-13T18:57:38.613Z,97.97
2019-01-13T19:00:13.857Z,97.93
2019-01-13T19:02:44.127Z,97.98
2019-01-13T19:05:15.996Z,98.06
2019-01-13T19:07:46.251Z,97.95
2019-01-13T19:10:51.798Z,97.98
2019-01-13T19:13:59.097Z,97.99
2019-01-13T19:16:34.349Z,98.06
2019-01-13T19:19:04.725Z,98.00
2019-01-13T19:22:01.044Z,98.07
2019-01-13T19:24:31.217Z,98.02
2019-01-13T19:27:01.530Z,98.09
2019-01-13T19:29:32.536Z,98.05
2019-01-13T19:32:02.806Z,98.14
2019-01-13T19:34:33.079Z,98.09
2019-01-13T19:37:03.339Z,98.07
2019-01-13T19:39:34.025Z,98.05
2019-01-13T19:42:04.546Z,98.01
2019-01-13T19:44:35.058Z,97.99
2019-01-13T19:47:05.473Z,98.00
2019-01-13T19:49:35.667Z,98.03
2019-01-13T19:52:06.137Z,97.94
2019-01-13T19:54:36.394Z,97.93
2019-01-13T19:57:06.840Z,97.97
2019-01-13T19:59:37.115Z,97.97
2019-01-13T20:02:07.652Z,98.02
2019-01-13T20:04:37.873Z,98.10
2019-01-13T20:07:08.593Z,98.09
2019-01-13T20:09:39.210Z,98.08
2019-01-13T20:12:09.567Z,98.06
2019-01-13T20:14:39.741Z,98.08
2019-01-13T20:17:10.330Z,98.03
2019-01-13T20:19:40.580Z,98.06
2019-01-13T20:22:11.008Z,98.07
2019-01-13T20:24:41.266Z,98.06
2019-01-13T20:27:11.362Z,98.08
2019-01-13T20:29:41.798Z,98.06
2019-01-13T20:32:12.335Z,98.06
2019-01-13T20:34:42.602Z,98.09
2019-01-13T20:37:13.131Z,98.10
2019-01-13T20:39:43.374Z,98.08
2019-01-13T20:42:13.576Z,98.06
2019-01-13T20:44:44.143Z,98.05
2019-01-13T20:47:14.593Z,98.12
2019-01-13T20:49:47.106Z,98.20
2019-01-13T20:52:17.840Z,98.17
2019-01-13T20:54:48.251Z,98.18
2019-01-13T20:57:18.605Z,98.13
2019-01-13T20:59:49.339Z,98.17
2019-01-13T21:02:19.974Z,98.17
2019-01-13T21:04:50.141Z,98.23
2019-01-13T21:07:20.377Z,98.26
2019-01-13T21:09:50.506Z,98.25
2019-01-13T21:12:20.839Z,98.26
2019-01-13T21:14:51.231Z,98.25
2019-01-13T21:17:21.604Z,98.25
2019-01-13T21:19:52.602Z,98.25
2019-01-13T21:22:22.917Z,98.29
2019-01-13T21:24:53.197Z,98.33
2019-01-13T21:27:23.726Z,98.35
2019-01-13T21:30:01.217Z,98.36
2019-01-13T21:32:26.099Z,98.38
2019-01-13T21:34:56.859Z,98.38
2019-01-13T21:37:27.176Z,98.35
2019-01-13T21:39:57.523Z,98.42
2019-01-13T21:42:27.876Z,98.37
2019-01-13T21:44:58.017Z,98.33
2019-01-13T21:47:28.378Z,98.33
2019-01-13T21:49:58.780Z,98.33
2019-01-13T21:52:29.537Z,98.32
2019-01-13T21:55:07.593Z,98.35
2019-01-13T21:57:37.974Z,98.34
2019-01-13T22:00:13.947Z,98.46
2019-01-13T22:02:44.490Z,98.57
2019-01-13T22:05:15.024Z,98.56
2019-01-13T22:07:45.467Z,98.57
2019-01-13T22:10:18.781Z,98.59
2019-01-13T22:12:49.079Z,98.52
2019-01-13T22:15:21.328Z,98.53
2019-01-13T22:17:51.747Z,98.55
2019-01-13T22:20:24.024Z,98.54
2019-01-13T22:22:55.066Z,98.49
2019-01-13T22:25:25.396Z,98.49
2019-01-13T22:27:55.896Z,98.43
2019-01-13T22:30:26.468Z,98.46
2019-01-13T22:32:56.842Z,98.44
2019-01-13T22:35:27.207Z,98.45
2019-01-13T22:37:57.402Z,98.41
2019-01-13T22:40:27.825Z,98.32
2019-01-13T22:42:58.184Z,98.11
2019-01-13T22:45:28.606Z,97.84
2019-01-13T22:47:58.817Z,97.63
2019-01-13T22:50:29.153Z,97.59
2019-01-13T22:52:59.361Z,97.24
2019-01-13T22:55:29.693Z,96.49
2019-01-13T22:58:00.009Z,95.72
2019-01-13T23:01:14.593Z,95.08
2019-01-13T23:03:44.895Z,95.41
2019-01-13T23:06:15.206Z,95.47
2019-01-13T23:08:47.977Z,95.38
2019-01-13T23:11:18.675Z,95.54
2019-01-13T23:13:49.207Z,95.48
2019-01-13T23:16:19.837Z,95.42
2019-01-13T23:18:50.105Z,95.54
2019-01-13T23:21:20.531Z,95.34
2019-01-13T23:23:50.875Z,95.15
2019-01-13T23:26:21.089Z,94.88
2019-01-13T23:28:51.391Z,94.56
2019-01-13T23:31:22.554Z,94.33
2019-01-13T23:33:52.880Z,94.24
2019-01-13T23:36:23.245Z,93.84
2019-01-13T23:38:53.923Z,93.88
2019-01-13T23:41:24.300Z,92.97
2019-01-13T23:43:54.806Z,92.85
2019-01-13T23:46:25.625Z,93.01
2019-01-13T23:48:57.630Z,93.11
2019-01-13T23:51:27.993Z,93.49
2019-01-13T23:53:58.357Z,93.63
2019-01-13T23:56:29.014Z,93.71
2019-01-13T23:58:59.348Z,94.02
